Airport View

Enter AWOS ICAO identifier for current METAR.

ex. KFNL

KLBB 191753Z 30010KT 10SM FEW250 29/17 A2990 RMK AO2 SLP071 T02940167 10294 20178 56001

19 Jun 2019 18:48

Frequency: 125.3

Phone: 806-766-6432

Other Area AWOS: KPVW - K2F5 - KGNC - KSNK

TAF KLBB 191720Z 1918/2018 32010KT P6SM FEW250 FM200100 VRB05KT P6SM SKC